createdAt,value
2023-01-23T00:00:47.305Z,51.14
2023-01-23T00:03:14.757Z,52.02
2023-01-23T00:05:42.050Z,51.86
2023-01-23T00:08:09.235Z,50.81
2023-01-23T00:10:37.857Z,51.16
2023-01-23T00:13:05.206Z,51.16
2023-01-23T00:15:33.331Z,50.14
2023-01-23T00:18:00.791Z,50.74
2023-01-23T00:20:27.968Z,51.31
2023-01-23T00:22:55.402Z,52.21
2023-01-23T00:25:22.877Z,52.12
2023-01-23T00:27:50.132Z,51.14
2023-01-23T00:30:17.679Z,51.52
2023-01-23T00:32:45.268Z,52.20
2023-01-23T00:35:12.430Z,51.93
2023-01-23T00:37:39.625Z,53.22
2023-01-23T00:40:07.472Z,51.44
2023-01-23T00:42:34.656Z,52.55
2023-01-23T00:45:01.853Z,51.84
2023-01-23T00:47:29.292Z,51.71
2023-01-23T00:49:58.858Z,52.08
2023-01-23T00:52:26.401Z,52.42
2023-01-23T00:54:54.401Z,52.47
2023-01-23T00:57:21.682Z,52.75
2023-01-23T00:59:48.870Z,52.17
2023-01-23T01:02:16.385Z,52.24
2023-01-23T01:04:43.593Z,53.56
2023-01-23T01:07:10.968Z,53.79
2023-01-23T01:09:38.530Z,51.85
2023-01-23T01:12:06.542Z,52.03
2023-01-23T01:14:33.870Z,52.04
2023-01-23T01:17:01.441Z,52.98
2023-01-23T01:19:29.488Z,52.31
2023-01-23T01:21:56.710Z,52.22
2023-01-23T01:24:24.212Z,52.02
2023-01-23T01:26:51.698Z,51.83
2023-01-23T01:29:18.905Z,51.87
2023-01-23T01:31:46.639Z,51.89
2023-01-23T01:34:14.023Z,52.75
2023-01-23T01:36:41.197Z,51.97
2023-01-23T01:39:08.670Z,51.73
2023-01-23T01:41:36.468Z,52.73
2023-01-23T01:44:03.741Z,52.77
2023-01-23T01:46:32.749Z,52.64
2023-01-23T01:49:07.198Z,53.04
2023-01-23T01:51:43.532Z,52.93
2023-01-23T01:54:10.901Z,52.29
2023-01-23T01:56:44.737Z,52.46
2023-01-23T01:59:11.909Z,52.03
2023-01-23T02:01:39.609Z,51.97
2023-01-23T02:04:07.153Z,52.02
2023-01-23T02:06:34.337Z,51.75
2023-01-23T02:09:20.471Z,51.34
2023-01-23T02:11:48.695Z,51.23
2023-01-23T02:14:18.972Z,51.19
2023-01-23T02:16:50.587Z,50.34
2023-01-23T02:19:21.041Z,50.79
2023-01-23T02:21:48.297Z,50.66
2023-01-23T02:24:27.478Z,50.61
2023-01-23T02:26:54.996Z,50.60
2023-01-23T02:29:25.834Z,50.95
2023-01-23T02:31:56.249Z,51.07
2023-01-23T02:34:26.111Z,50.65
2023-01-23T02:36:53.802Z,49.93
2023-01-23T02:39:21.397Z,50.28
2023-01-23T02:41:50.345Z,52.06
2023-01-23T02:44:28.005Z,51.47
2023-01-23T02:46:56.993Z,51.10
2023-01-23T02:49:25.668Z,50.88
2023-01-23T02:51:54.163Z,50.99
2023-01-23T02:54:22.485Z,50.79
2023-01-23T02:56:49.977Z,50.86
2023-01-23T02:59:36.120Z,50.87
2023-01-23T03:02:04.466Z,51.50
2023-01-23T03:04:31.724Z,51.56
2023-01-23T03:06:59.423Z,51.36
2023-01-23T03:09:26.986Z,51.88
2023-01-23T03:11:54.355Z,53.09
2023-01-23T03:14:22.041Z,53.99
2023-01-23T03:16:54.079Z,52.81
2023-01-23T03:19:23.494Z,54.74
2023-01-23T03:21:51.456Z,54.64
2023-01-23T03:24:19.045Z,54.26
2023-01-23T03:26:47.061Z,56.70
2023-01-23T03:29:39.790Z,54.05
2023-01-23T03:32:07.286Z,53.41
2023-01-23T03:34:35.053Z,53.07
2023-01-23T03:37:03.376Z,54.05
2023-01-23T03:39:49.903Z,53.94
2023-01-23T03:42:18.046Z,54.08
2023-01-23T03:44:45.961Z,54.32
2023-01-23T03:47:13.211Z,53.53
2023-01-23T03:49:40.655Z,54.00
2023-01-23T03:52:08.048Z,53.55
2023-01-23T03:54:35.356Z,52.73
2023-01-23T03:57:05.406Z,53.69
2023-01-23T03:59:41.713Z,53.44
2023-01-23T04:02:09.220Z,53.45
2023-01-23T04:04:36.697Z,52.94
2023-01-23T04:07:05.649Z,52.73
2023-01-23T04:09:33.266Z,53.23
2023-01-23T04:12:01.878Z,52.60
2023-01-23T04:14:37.184Z,52.84
2023-01-23T04:17:05.365Z,53.93
2023-01-23T04:19:32.765Z,53.13
2023-01-23T04:22:00.082Z,53.08
2023-01-23T04:24:30.957Z,52.76
2023-01-23T04:26:58.421Z,54.97
2023-01-23T04:29:26.037Z,53.87
2023-01-23T04:31:54.221Z,52.92
2023-01-23T04:34:22.272Z,54.42
2023-01-23T04:36:50.014Z,55.54
2023-01-23T04:39:18.007Z,53.40
2023-01-23T04:41:45.629Z,53.52
2023-01-23T04:44:23.022Z,55.42
2023-01-23T04:46:55.370Z,53.79
2023-01-23T04:49:23.028Z,54.04
2023-01-23T04:51:51.136Z,54.73
2023-01-23T04:54:19.108Z,54.92
2023-01-23T04:56:46.490Z,56.94
2023-01-23T04:59:15.842Z,55.63
2023-01-23T05:01:43.685Z,57.49
2023-01-23T05:04:11.333Z,58.13
2023-01-23T05:06:38.937Z,57.20
2023-01-23T05:09:06.445Z,58.61
2023-01-23T05:11:35.080Z,58.56
2023-01-23T05:14:03.378Z,59.68
2023-01-23T05:16:30.914Z,59.99
2023-01-23T05:18:59.768Z,58.51
2023-01-23T05:21:27.683Z,58.42
2023-01-23T05:23:54.929Z,58.55
2023-01-23T05:26:22.237Z,59.76
2023-01-23T05:28:49.756Z,56.94
2023-01-23T05:31:17.096Z,56.84
2023-01-23T05:33:44.929Z,56.98
2023-01-23T05:36:12.802Z,56.41
2023-01-23T05:38:40.449Z,57.47
2023-01-23T05:41:08.237Z,56.39
2023-01-23T05:43:38.798Z,58.81
2023-01-23T05:46:07.188Z,57.05
2023-01-23T05:48:41.920Z,56.73
2023-01-23T05:51:10.007Z,56.38
2023-01-23T05:53:37.532Z,58.25
2023-01-23T05:56:05.530Z,59.15
2023-01-23T05:58:33.984Z,59.79
2023-01-23T06:01:02.591Z,60.33
2023-01-23T06:03:32.048Z,59.55
2023-01-23T06:06:00.698Z,60.18
2023-01-23T06:08:28.152Z,60.37
2023-01-23T06:10:58.528Z,59.82
2023-01-23T06:13:26.405Z,58.64
2023-01-23T06:15:53.707Z,59.11
2023-01-23T06:18:21.250Z,59.95
2023-01-23T06:20:48.420Z,60.62
2023-01-23T06:23:16.685Z,61.37
2023-01-23T06:25:44.239Z,59.95
2023-01-23T06:28:12.237Z,60.43
2023-01-23T06:30:39.442Z,60.14
2023-01-23T06:33:07.698Z,59.21
2023-01-23T06:35:35.306Z,59.08
2023-01-23T06:38:02.525Z,59.53
2023-01-23T06:40:30.507Z,58.94
2023-01-23T06:42:59.590Z,59.10
2023-01-23T06:45:26.786Z,60.45
2023-01-23T06:47:54.281Z,60.08
2023-01-23T06:50:22.498Z,59.07
2023-01-23T06:52:50.112Z,59.61
2023-01-23T06:55:18.537Z,59.22
2023-01-23T06:57:45.922Z,60.25
2023-01-23T07:00:13.608Z,60.04
2023-01-23T07:02:41.179Z,61.19
2023-01-23T07:05:08.538Z,60.24
2023-01-23T07:07:35.794Z,59.08
2023-01-23T07:10:03.353Z,59.68
2023-01-23T07:12:30.499Z,60.80
2023-01-23T07:14:57.850Z,58.88
2023-01-23T07:17:26.181Z,59.12
2023-01-23T07:19:53.420Z,59.46
2023-01-23T07:22:21.223Z,58.12
2023-01-23T07:24:48.770Z,58.07
2023-01-23T07:27:16.134Z,58.92
2023-01-23T07:29:43.416Z,58.99
2023-01-23T07:32:11.260Z,58.13
2023-01-23T07:34:38.609Z,58.44
2023-01-23T07:37:05.870Z,58.63
2023-01-23T07:39:33.383Z,60.17
2023-01-23T07:42:00.733Z,60.13
2023-01-23T07:44:28.249Z,59.54
2023-01-23T07:46:56.502Z,59.51
2023-01-23T07:49:23.703Z,59.24
2023-01-23T07:51:50.890Z,59.12
2023-01-23T07:54:18.389Z,58.87
2023-01-23T07:56:45.590Z,58.72
2023-01-23T07:59:13.273Z,60.12
2023-01-23T08:01:40.779Z,60.27
2023-01-23T08:04:08.415Z,58.60
2023-01-23T08:06:36.598Z,58.80
2023-01-23T08:09:03.844Z,58.82
2023-01-23T08:11:33.496Z,59.88
2023-01-23T08:14:01.565Z,59.19
2023-01-23T08:16:29.147Z,57.63
2023-01-23T08:18:56.763Z,58.13
2023-01-23T08:21:23.932Z,58.46
2023-01-23T08:23:51.226Z,59.60
2023-01-23T08:26:18.720Z,59.25
2023-01-23T08:28:46.037Z,59.26
2023-01-23T08:31:13.460Z,58.67
2023-01-23T08:33:41.128Z,59.10
2023-01-23T08:36:11.163Z,57.75
2023-01-23T08:38:38.560Z,58.81
2023-01-23T08:41:06.424Z,59.86
2023-01-23T08:43:33.744Z,60.58
2023-01-23T08:46:01.215Z,60.93
2023-01-23T08:48:28.908Z,59.85
2023-01-23T08:51:00.471Z,59.33
2023-01-23T08:53:27.933Z,59.10
2023-01-23T08:55:58.770Z,59.27
2023-01-23T08:58:26.092Z,59.46
2023-01-23T09:00:53.315Z,58.32
2023-01-23T09:03:21.026Z,59.36
2023-01-23T09:05:48.353Z,57.94
2023-01-23T09:08:15.543Z,58.97
2023-01-23T09:10:43.112Z,59.38
2023-01-23T09:13:10.448Z,59.85
2023-01-23T09:15:38.194Z,59.84
2023-01-23T09:18:05.746Z,58.69
2023-01-23T09:20:32.997Z,58.89
2023-01-23T09:23:00.243Z,57.25
2023-01-23T09:25:27.950Z,56.79
2023-01-23T09:27:55.347Z,57.83
2023-01-23T09:30:22.850Z,57.00
2023-01-23T09:32:50.808Z,56.59
2023-01-23T09:35:18.005Z,55.53
2023-01-23T09:38:00.551Z,53.92
2023-01-23T09:40:28.818Z,51.85
2023-01-23T09:42:57.149Z,53.03
2023-01-23T09:45:24.756Z,53.26
2023-01-23T09:48:12.398Z,53.61
2023-01-23T09:50:40.938Z,52.42
2023-01-23T09:53:11.909Z,52.31
2023-01-23T09:55:39.095Z,54.21
2023-01-23T09:58:06.271Z,54.35
2023-01-23T10:00:33.816Z,53.55
2023-01-23T10:03:01.830Z,53.02
2023-01-23T10:05:37.033Z,53.95
2023-01-23T10:08:11.190Z,52.88
2023-01-23T10:10:47.635Z,48.44
2023-01-23T10:13:20.985Z,48.53
2023-01-23T10:15:48.187Z,48.24
2023-01-23T10:18:26.429Z,49.67
2023-01-23T10:21:05.296Z,49.09
2023-01-23T10:24:01.901Z,49.87
2023-01-23T10:26:34.061Z,48.19
2023-01-23T10:29:03.822Z,47.39
2023-01-23T10:31:38.543Z,46.88
2023-01-23T10:34:06.159Z,47.23
2023-01-23T10:36:54.046Z,48.54
2023-01-23T10:39:40.849Z,49.13
2023-01-23T10:42:11.754Z,48.59
2023-01-23T10:44:39.286Z,48.81
2023-01-23T10:47:13.029Z,48.56
2023-01-23T10:49:44.397Z,49.38
2023-01-23T10:52:31.868Z,49.92
2023-01-23T10:54:59.482Z,50.91
2023-01-23T10:57:27.871Z,48.30
2023-01-23T10:59:55.482Z,49.76
2023-01-23T11:02:35.507Z,50.84
2023-01-23T11:05:03.295Z,52.07
2023-01-23T11:07:31.405Z,52.09
2023-01-23T11:09:59.890Z,52.93
2023-01-23T11:12:28.778Z,51.08
2023-01-23T11:15:15.204Z,50.94
2023-01-23T11:17:42.532Z,50.23
2023-01-23T11:20:11.526Z,52.40
2023-01-23T11:22:39.658Z,52.30
2023-01-23T11:25:39.454Z,51.94
2023-01-23T11:28:27.438Z,50.84
2023-01-23T11:31:16.034Z,50.74
2023-01-23T11:33:47.923Z,51.76
2023-01-23T11:36:22.404Z,51.80
2023-01-23T11:38:52.881Z,51.62
2023-01-23T11:41:20.815Z,50.44
2023-01-23T11:43:47.971Z,51.99
2023-01-23T11:46:19.022Z,52.04
2023-01-23T11:49:08.764Z,51.75
2023-01-23T11:51:42.137Z,51.85
2023-01-23T11:54:27.790Z,51.70
2023-01-23T11:57:02.288Z,52.97
2023-01-23T11:59:36.457Z,52.94
2023-01-23T12:02:04.100Z,51.92
2023-01-23T12:04:31.582Z,51.98
2023-01-23T12:07:17.722Z,50.82
2023-01-23T12:10:05.600Z,51.78
2023-01-23T12:12:51.332Z,52.19
2023-01-23T12:15:25.081Z,51.22
2023-01-23T12:18:11.989Z,51.94
2023-01-23T12:20:42.307Z,52.16
2023-01-23T12:23:37.693Z,52.01
2023-01-23T12:26:13.828Z,52.10
2023-01-23T12:28:53.330Z,51.83
2023-01-23T12:31:24.065Z,53.11
2023-01-23T12:33:58.031Z,52.11
2023-01-23T12:36:34.134Z,51.64
2023-01-23T12:39:02.405Z,51.29
2023-01-23T12:41:36.355Z,50.12
2023-01-23T12:44:22.623Z,51.45
2023-01-23T12:46:50.914Z,51.25
2023-01-23T12:49:47.690Z,51.08
2023-01-23T12:52:29.038Z,50.47
2023-01-23T12:55:03.970Z,51.77
2023-01-23T12:57:52.825Z,51.41
2023-01-23T13:00:36.932Z,50.95
2023-01-23T13:03:04.357Z,50.51
2023-01-23T13:05:37.559Z,50.47
2023-01-23T13:08:40.501Z,50.74
2023-01-23T13:11:40.402Z,50.55
2023-01-23T13:14:16.300Z,50.50
2023-01-23T13:16:47.753Z,50.42
2023-01-23T13:19:41.184Z,50.95
2023-01-23T13:22:30.462Z,51.38
2023-01-23T13:25:17.094Z,52.54
2023-01-23T13:27:45.519Z,51.05
2023-01-23T13:30:22.416Z,51.43
2023-01-23T13:32:50.822Z,52.10
2023-01-23T13:35:37.947Z,51.69
2023-01-23T13:38:25.485Z,51.18
2023-01-23T13:41:04.820Z,51.15
2023-01-23T13:43:50.471Z,51.04
2023-01-23T13:46:36.690Z,51.33
2023-01-23T14:21:49.323Z,51.91
2023-01-23T14:24:23.718Z,52.10
2023-01-23T14:26:52.070Z,52.10
2023-01-23T14:29:20.817Z,51.99
2023-01-23T14:31:48.292Z,51.46
2023-01-23T14:34:17.945Z,52.38
2023-01-23T14:36:50.836Z,51.69
2023-01-23T14:39:18.584Z,51.46
2023-01-23T14:41:47.545Z,51.93
2023-01-23T14:44:21.808Z,50.95
2023-01-23T14:46:52.980Z,51.66
2023-01-23T14:49:35.543Z,52.32
2023-01-23T14:52:03.933Z,51.56
2023-01-23T14:54:33.159Z,52.01
2023-01-23T14:57:01.351Z,52.49
2023-01-23T14:59:33.505Z,52.26
2023-01-23T15:02:05.390Z,53.77
2023-01-23T15:04:37.848Z,52.41
2023-01-23T15:07:05.064Z,51.86
2023-01-23T15:09:38.901Z,53.09
2023-01-23T15:12:07.756Z,53.47
2023-01-23T15:14:36.259Z,54.23
2023-01-23T15:17:04.499Z,53.00
2023-01-23T15:19:31.985Z,52.92
2023-01-23T15:22:06.440Z,52.97
2023-01-23T15:24:33.941Z,52.45
2023-01-23T15:27:03.691Z,51.27
2023-01-23T15:29:31.214Z,52.07
2023-01-23T15:31:59.497Z,51.89
2023-01-23T15:34:33.266Z,52.80
2023-01-23T15:37:05.360Z,52.08
2023-01-23T15:39:51.569Z,52.77
2023-01-23T15:42:18.982Z,52.72
2023-01-23T15:44:46.418Z,51.61
2023-01-23T15:47:13.586Z,51.66
2023-01-23T15:49:41.079Z,52.21
2023-01-23T15:52:18.183Z,51.20
2023-01-23T15:54:45.653Z,52.52
2023-01-23T15:57:13.230Z,51.42
2023-01-23T15:59:40.513Z,49.84
2023-01-23T16:02:12.877Z,49.46
2023-01-23T16:04:46.064Z,49.95
2023-01-23T16:07:19.160Z,50.29
2023-01-23T16:09:49.700Z,50.17
2023-01-23T16:12:17.826Z,49.86
2023-01-23T16:14:45.561Z,49.69
2023-01-23T16:17:17.052Z,50.96
2023-01-23T16:19:44.759Z,49.82
2023-01-23T16:22:13.152Z,50.60
2023-01-23T16:24:40.638Z,49.88
2023-01-23T16:27:10.464Z,50.67
2023-01-23T16:29:37.690Z,49.23
2023-01-23T16:32:05.902Z,51.89
2023-01-23T16:34:33.258Z,50.50
2023-01-23T16:37:01.053Z,51.04
2023-01-23T16:39:32.122Z,51.30
2023-01-23T16:41:59.653Z,51.33
2023-01-23T16:44:26.978Z,51.25
2023-01-23T16:46:54.532Z,52.15
2023-01-23T16:49:21.861Z,51.73
2023-01-23T16:51:56.924Z,50.73
2023-01-23T16:54:24.635Z,52.69
2023-01-23T16:56:52.821Z,51.62
2023-01-23T16:59:36.045Z,52.29
2023-01-23T17:02:12.057Z,52.22
2023-01-23T17:04:39.481Z,52.79
2023-01-23T17:07:10.292Z,50.10
2023-01-23T17:09:37.537Z,52.36
2023-01-23T17:12:05.053Z,51.49
2023-01-23T17:14:32.599Z,49.22
2023-01-23T17:17:04.444Z,49.15
2023-01-23T17:19:36.562Z,47.50
2023-01-23T17:22:04.900Z,47.90
2023-01-23T17:24:32.562Z,47.07
2023-01-23T17:26:59.857Z,48.09
2023-01-23T17:29:27.612Z,46.81
2023-01-23T17:31:54.952Z,47.36
2023-01-23T17:34:23.143Z,47.72
2023-01-23T17:36:51.809Z,47.44
2023-01-23T17:39:20.558Z,48.31
2023-01-23T17:41:48.023Z,47.62
2023-01-23T17:44:15.696Z,47.15
2023-01-23T17:46:43.083Z,47.08
2023-01-23T17:49:26.362Z,46.53
2023-01-23T17:51:53.970Z,46.07
2023-01-23T17:54:21.602Z,45.79
2023-01-23T17:56:49.343Z,45.87
2023-01-23T17:59:17.061Z,45.39
2023-01-23T18:01:44.248Z,45.44
2023-01-23T18:04:19.009Z,45.17
2023-01-23T18:06:46.313Z,45.22
2023-01-23T18:09:14.208Z,44.80
2023-01-23T18:11:43.068Z,45.27
2023-01-23T18:14:10.226Z,44.85
2023-01-23T18:16:45.381Z,45.42
2023-01-23T18:19:22.180Z,45.69
2023-01-23T18:21:51.194Z,46.96
2023-01-23T18:24:26.930Z,46.60
2023-01-23T18:27:13.477Z,46.16
2023-01-23T18:29:49.924Z,46.21
2023-01-23T18:32:23.978Z,45.70
2023-01-23T18:35:14.696Z,45.91
2023-01-23T18:37:48.056Z,46.01
2023-01-23T18:40:17.485Z,45.79
2023-01-23T18:42:45.950Z,46.16
2023-01-23T18:45:20.750Z,45.96
2023-01-23T18:47:54.340Z,46.17
2023-01-23T18:50:26.940Z,46.05
2023-01-23T18:52:54.749Z,47.33
2023-01-23T18:55:40.595Z,46.33
2023-01-23T18:58:20.680Z,46.77
2023-01-23T19:00:57.509Z,46.26
2023-01-23T19:03:28.980Z,46.11
2023-01-23T19:05:56.421Z,47.03
2023-01-23T19:08:28.162Z,46.76
2023-01-23T19:10:56.138Z,46.98
2023-01-23T19:13:29.997Z,46.50
2023-01-23T19:16:01.231Z,46.23
2023-01-23T19:18:41.048Z,46.02
2023-01-23T19:21:14.922Z,46.75
2023-01-23T19:23:47.034Z,46.37
2023-01-23T19:26:15.170Z,46.15
2023-01-23T19:28:42.732Z,46.90
2023-01-23T19:31:19.057Z,46.49
2023-01-23T19:33:47.091Z,45.88
2023-01-23T19:36:14.456Z,46.42
2023-01-23T19:38:41.843Z,45.92
2023-01-23T19:41:19.678Z,46.27
2023-01-23T19:43:50.858Z,46.44
2023-01-23T19:46:19.472Z,46.40
2023-01-23T19:48:46.937Z,46.17
2023-01-23T19:51:15.138Z,46.34
2023-01-23T19:53:43.360Z,46.54
2023-01-23T19:56:11.830Z,46.52
2023-01-23T19:58:39.701Z,46.47
2023-01-23T20:01:16.879Z,46.14
2023-01-23T20:03:44.579Z,46.43
2023-01-23T20:06:12.561Z,46.84
2023-01-23T20:08:39.943Z,46.54
2023-01-23T20:11:09.338Z,46.50
2023-01-23T20:13:36.550Z,47.15
2023-01-23T20:16:14.868Z,46.61
2023-01-23T20:18:42.823Z,46.59
2023-01-23T20:21:10.409Z,46.32
2023-01-23T20:23:37.725Z,46.15
2023-01-23T20:26:05.281Z,45.89
2023-01-23T20:28:32.741Z,46.04
2023-01-23T20:31:04.459Z,45.86
2023-01-23T20:33:32.376Z,45.75
2023-01-23T20:35:59.782Z,45.77
2023-01-23T20:38:27.138Z,45.74
2023-01-23T20:40:54.984Z,45.91
2023-01-23T20:43:22.315Z,45.53
2023-01-23T20:45:50.243Z,45.89
2023-01-23T20:48:18.147Z,45.82
2023-01-23T20:50:45.612Z,46.13
2023-01-23T20:53:32.102Z,45.96
2023-01-23T20:56:03.525Z,45.49
2023-01-23T20:58:49.972Z,45.48
2023-01-23T21:01:18.397Z,45.61
2023-01-23T21:03:48.326Z,45.45
2023-01-23T21:06:16.428Z,45.30
2023-01-23T21:08:44.118Z,45.14
2023-01-23T21:11:15.668Z,45.29
2023-01-23T21:13:43.081Z,45.28
2023-01-23T21:16:14.520Z,46.26
2023-01-23T21:18:44.693Z,46.55
2023-01-23T21:21:16.529Z,46.52
2023-01-23T21:23:46.684Z,47.22
2023-01-23T21:26:14.740Z,46.39
2023-01-23T21:28:42.094Z,45.68
2023-01-23T21:31:13.763Z,46.43
2023-01-23T21:33:44.175Z,45.91
2023-01-23T21:36:11.710Z,45.53
2023-01-23T21:38:39.301Z,45.68
2023-01-23T21:41:06.865Z,45.87
2023-01-23T21:43:34.190Z,45.99
2023-01-23T21:46:01.398Z,45.88
2023-01-23T21:48:29.745Z,45.13
2023-01-23T21:51:10.274Z,45.37
2023-01-23T21:53:38.597Z,46.11
2023-01-23T21:56:06.198Z,46.03
2023-01-23T21:58:33.737Z,45.93
2023-01-23T22:01:24.353Z,45.88
2023-01-23T22:03:51.890Z,45.87
2023-01-23T22:06:19.233Z,45.46
2023-01-23T22:08:46.436Z,45.45
2023-01-23T22:11:13.953Z,45.56
2023-01-23T22:13:41.177Z,45.87
2023-01-23T22:16:08.428Z,47.48
2023-01-23T22:18:35.931Z,46.49
2023-01-23T22:21:04.181Z,46.49
2023-01-23T22:23:31.578Z,49.46
2023-01-23T22:26:00.229Z,48.54
2023-01-23T22:28:27.517Z,49.71
2023-01-23T22:30:55.025Z,51.00
2023-01-23T22:33:23.889Z,51.16
2023-01-23T22:35:51.148Z,53.43
2023-01-23T22:38:18.328Z,53.78
2023-01-23T22:40:45.796Z,53.54
2023-01-23T22:43:12.972Z,54.29
2023-01-23T22:45:40.174Z,56.25
2023-01-23T22:48:07.689Z,54.61
2023-01-23T22:50:34.914Z,56.77
2023-01-23T22:53:02.237Z,52.98
2023-01-23T22:55:29.741Z,52.49
2023-01-23T22:57:56.911Z,51.26
2023-01-23T23:00:24.403Z,54.14
2023-01-23T23:02:51.817Z,54.83
2023-01-23T23:05:19.245Z,54.52
2023-01-23T23:07:46.695Z,54.20
2023-01-23T23:10:14.150Z,54.60
2023-01-23T23:12:41.351Z,53.45
2023-01-23T23:15:08.878Z,51.44
2023-01-23T23:17:36.379Z,52.27
2023-01-23T23:20:03.662Z,51.00
2023-01-23T23:22:30.809Z,49.54
2023-01-23T23:24:58.351Z,49.71
2023-01-23T23:27:25.545Z,50.83
2023-01-23T23:29:52.790Z,49.93
2023-01-23T23:32:20.264Z,48.83
2023-01-23T23:34:47.611Z,48.25
2023-01-23T23:37:14.769Z,48.27
2023-01-23T23:39:43.205Z,48.41
2023-01-23T23:42:10.391Z,47.65
2023-01-23T23:44:37.576Z,47.87
2023-01-23T23:47:05.074Z,47.95
2023-01-23T23:49:32.481Z,48.07
2023-01-23T23:51:59.778Z,47.87
2023-01-23T23:54:27.262Z,47.52
2023-01-23T23:56:54.493Z,47.69
2023-01-23T23:59:21.706Z,47.41
